sensor_id;sensor_type;location;lat;lon;timestamp;pressure;altitude;pressure_sealevel;temperature;humidity
29433;BME280;16405;53.964;13.448;2023-06-10T00:01:46;101530.13;;;12.72;100.00
29433;BME280;16405;53.964;13.448;2023-06-10T00:04:15;101517.03;;;12.70;100.00
29433;BME280;16405;53.964;13.448;2023-06-10T00:06:45;101535.44;;;12.72;100.00
29433;BME280;16405;53.964;13.448;2023-06-10T00:09:15;101525.78;;;12.71;100.00
29433;BME280;16405;53.964;13.448;2023-06-10T00:11:42;101521.25;;;12.75;100.00
29433;BME280;16405;53.964;13.448;2023-06-10T00:14:08;101519.50;;;12.73;100.00
29433;BME280;16405;53.964;13.448;2023-06-10T00:16:34;101531.72;;;12.76;100.00
29433;BME280;16405;53.964;13.448;2023-06-10T00:19:03;101524.00;;;12.71;100.00
29433;BME280;16405;53.964;13.448;2023-06-10T00:21:30;101533.59;;;12.74;100.00
29433;BME280;16405;53.964;13.448;2023-06-10T00:24:07;101527.59;;;12.70;100.00
29433;BME280;16405;53.964;13.448;2023-06-10T00:26:35;101523.91;;;12.75;100.00
29433;BME280;16405;53.964;13.448;2023-06-10T00:29:01;101523.94;;;12.73;100.00
29433;BME280;16405;53.964;13.448;2023-06-10T00:31:27;101535.56;;;12.69;100.00
29433;BME280;16405;53.964;13.448;2023-06-10T00:33:53;101527.59;;;12.70;100.00
29433;BME280;16405;53.964;13.448;2023-06-10T00:36:19;101527.78;;;12.66;100.00
29433;BME280;16405;53.964;13.448;2023-06-10T00:38:45;101532.94;;;12.69;100.00
29433;BME280;16405;53.964;13.448;2023-06-10T00:41:11;101540.72;;;12.72;99.88
29433;BME280;16405;53.964;13.448;2023-06-10T00:43:36;101538.22;;;12.69;100.00
29433;BME280;16405;53.964;13.448;2023-06-10T00:46:02;101529.38;;;12.70;99.88
29433;BME280;16405;53.964;13.448;2023-06-10T00:48:28;101538.16;;;12.70;100.00
29433;BME280;16405;53.964;13.448;2023-06-10T00:50:54;101530.22;;;12.70;100.00
29433;BME280;16405;53.964;13.448;2023-06-10T00:53:21;101527.34;;;12.77;100.00
29433;BME280;16405;53.964;13.448;2023-06-10T00:55:48;101524.47;;;12.81;99.43
29433;BME280;16405;53.964;13.448;2023-06-10T00:58:15;101534.13;;;12.82;98.94
29433;BME280;16405;53.964;13.448;2023-06-10T01:00:41;101534.84;;;12.86;98.77
29433;BME280;16405;53.964;13.448;2023-06-10T01:03:07;101527.19;;;12.80;98.55
29433;BME280;16405;53.964;13.448;2023-06-10T01:05:37;101536.56;;;12.87;98.04
29433;BME280;16405;53.964;13.448;2023-06-10T01:08:40;101539.03;;;12.91;98.25
29433;BME280;16405;53.964;13.448;2023-06-10T01:11:11;101538.81;;;12.96;97.83
29433;BME280;16405;53.964;13.448;2023-06-10T01:13:41;101540.31;;;13.02;96.94
29433;BME280;16405;53.964;13.448;2023-06-10T01:16:07;101543.69;;;13.05;96.63
29433;BME280;16405;53.964;13.448;2023-06-10T01:18:34;101544.75;;;13.01;96.44
29433;BME280;16405;53.964;13.448;2023-06-10T01:21:00;101541.31;;;12.99;96.52
29433;BME280;16405;53.964;13.448;2023-06-10T01:23:25;101538.88;;;12.95;97.02
29433;BME280;16405;53.964;13.448;2023-06-10T01:25:59;101540.72;;;12.92;96.62
29433;BME280;16405;53.964;13.448;2023-06-10T01:28:54;101541.38;;;12.98;96.88
29433;BME280;16405;53.964;13.448;2023-06-10T01:34:56;101551.91;;;12.99;96.76
29433;BME280;16405;53.964;13.448;2023-06-10T01:37:24;101550.00;;;13.03;96.43
29433;BME280;16405;53.964;13.448;2023-06-10T01:39:53;101551.69;;;13.04;95.99
29433;BME280;16405;53.964;13.448;2023-06-10T01:42:21;101554.13;;;13.08;96.07
29433;BME280;16405;53.964;13.448;2023-06-10T01:44:47;101555.66;;;13.14;95.44
29433;BME280;16405;53.964;13.448;2023-06-10T01:47:12;101553.00;;;13.14;94.99
29433;BME280;16405;53.964;13.448;2023-06-10T01:49:38;101544.69;;;13.03;95.50
29433;BME280;16405;53.964;13.448;2023-06-10T01:52:05;101552.75;;;13.00;95.92
29433;BME280;16405;53.964;13.448;2023-06-10T01:54:30;101545.59;;;13.02;95.61
29433;BME280;16405;53.964;13.448;2023-06-10T01:56:56;101544.56;;;13.06;95.79
29433;BME280;16405;53.964;13.448;2023-06-10T01:59:22;101542.84;;;13.05;95.77
29433;BME280;16405;53.964;13.448;2023-06-10T02:01:48;101550.25;;;12.97;96.35
29433;BME280;16405;53.964;13.448;2023-06-10T02:04:13;101555.53;;;12.97;96.13
29433;BME280;16405;53.964;13.448;2023-06-10T02:06:40;101550.03;;;13.01;96.43
29433;BME280;16405;53.964;13.448;2023-06-10T02:09:05;101555.28;;;13.03;96.11
29433;BME280;16405;53.964;13.448;2023-06-10T02:11:31;101547.72;;;12.93;96.07
29433;BME280;16405;53.964;13.448;2023-06-10T02:13:57;101554.47;;;13.01;96.66
29433;BME280;16405;53.964;13.448;2023-06-10T02:16:23;101551.03;;;12.99;96.35
29433;BME280;16405;53.964;13.448;2023-06-10T02:18:49;101539.63;;;12.98;96.62
29433;BME280;16405;53.964;13.448;2023-06-10T02:21:15;101547.34;;;13.03;96.31
29433;BME280;16405;53.964;13.448;2023-06-10T02:23:41;101545.41;;;13.06;96.05
29433;BME280;16405;53.964;13.448;2023-06-10T02:26:06;101545.59;;;13.02;96.12
29433;BME280;16405;53.964;13.448;2023-06-10T02:28:32;101542.75;;;13.06;96.00
29433;BME280;16405;53.964;13.448;2023-06-10T02:30:58;101550.03;;;13.01;95.97
29433;BME280;16405;53.964;13.448;2023-06-10T02:33:24;101555.28;;;13.03;96.60
29433;BME280;16405;53.964;13.448;2023-06-10T02:35:50;101549.84;;;13.06;96.56
29433;BME280;16405;53.964;13.448;2023-06-10T02:38:16;101555.34;;;13.01;96.50
29433;BME280;16405;53.964;13.448;2023-06-10T02:40:42;101555.13;;;13.06;96.31
29433;BME280;16405;53.964;13.448;2023-06-10T02:43:09;101544.44;;;13.09;96.57
29433;BME280;16405;53.964;13.448;2023-06-10T02:45:35;101553.06;;;13.12;96.25
29433;BME280;16405;53.964;13.448;2023-06-10T02:48:01;101555.44;;;13.19;96.04
29433;BME280;16405;53.964;13.448;2023-06-10T02:50:27;101552.06;;;13.15;96.15
29433;BME280;16405;53.964;13.448;2023-06-10T02:52:53;101557.50;;;13.12;96.63
29433;BME280;16405;53.964;13.448;2023-06-10T02:55:18;101555.72;;;13.12;96.17
29433;BME280;16405;53.964;13.448;2023-06-10T02:57:44;101557.50;;;13.12;96.64
29433;BME280;16405;53.964;13.448;2023-06-10T03:00:10;101561.94;;;13.11;97.24
29433;BME280;16405;53.964;13.448;2023-06-10T03:02:39;101564.59;;;13.11;97.03
29433;BME280;16405;53.964;13.448;2023-06-10T03:05:06;101567.03;;;13.16;96.80
29433;BME280;16405;53.964;13.448;2023-06-10T03:07:36;101567.03;;;13.16;97.03
29433;BME280;16405;53.964;13.448;2023-06-10T03:10:03;101565.69;;;13.26;96.65
29433;BME280;16405;53.964;13.448;2023-06-10T03:12:29;101560.28;;;13.29;96.18
29433;BME280;16405;53.964;13.448;2023-06-10T03:14:55;101560.81;;;13.38;95.61
29433;BME280;16405;53.964;13.448;2023-06-10T03:17:20;101551.28;;;13.33;95.78
29433;BME280;16405;53.964;13.448;2023-06-10T03:19:46;101558.91;;;13.41;95.49
29433;BME280;16405;53.964;13.448;2023-06-10T03:22:16;101559.88;;;13.39;95.09
29433;BME280;16405;53.964;13.448;2023-06-10T03:24:42;101564.94;;;13.43;95.48
29433;BME280;16405;53.964;13.448;2023-06-10T03:27:10;101565.25;;;13.56;94.61
29433;BME280;16405;53.964;13.448;2023-06-10T03:29:38;101569.47;;;13.60;94.26
29433;BME280;16405;53.964;13.448;2023-06-10T03:32:05;101572.91;;;13.62;94.26
29433;BME280;16405;53.964;13.448;2023-06-10T03:34:31;101573.28;;;13.73;93.69
29433;BME280;16405;53.964;13.448;2023-06-10T03:36:58;101582.09;;;13.74;93.31
29433;BME280;16405;53.964;13.448;2023-06-10T03:39:24;101574.94;;;13.76;93.59
29433;BME280;16405;53.964;13.448;2023-06-10T03:41:50;101566.91;;;13.78;93.38
29433;BME280;16405;53.964;13.448;2023-06-10T03:44:16;101573.78;;;13.82;93.17
29433;BME280;16405;53.964;13.448;2023-06-10T03:46:42;101570.34;;;13.80;92.68
29433;BME280;16405;53.964;13.448;2023-06-10T03:49:08;101569.72;;;13.93;92.49
29433;BME280;16405;53.964;13.448;2023-06-10T03:51:36;101585.25;;;14.38;91.12
29433;BME280;16405;53.964;13.448;2023-06-10T03:54:02;101581.16;;;14.49;89.26
29433;BME280;16405;53.964;13.448;2023-06-10T03:56:28;101596.22;;;14.84;87.85
29433;BME280;16405;53.964;13.448;2023-06-10T03:58:54;101582.06;;;14.85;86.89
29433;BME280;16405;53.964;13.448;2023-06-10T04:01:21;101584.47;;;14.89;86.14
29433;BME280;16405;53.964;13.448;2023-06-10T04:03:49;101583.63;;;14.89;85.82
29433;BME280;16405;53.964;13.448;2023-06-10T04:06:17;101591.94;;;14.64;86.52
29433;BME280;16405;53.964;13.448;2023-06-10T04:08:42;101592.03;;;14.62;87.31
29433;BME280;16405;53.964;13.448;2023-06-10T04:11:09;101589.06;;;14.68;87.00
29433;BME280;16405;53.964;13.448;2023-06-10T04:13:35;101590.63;;;14.72;86.78
29433;BME280;16405;53.964;13.448;2023-06-10T04:16:02;101590.47;;;14.75;86.79
29433;BME280;16405;53.964;13.448;2023-06-10T04:18:29;101583.84;;;14.84;86.11
29433;BME280;16405;53.964;13.448;2023-06-10T04:20:54;101590.09;;;14.83;86.04
29433;BME280;16405;53.964;13.448;2023-06-10T04:23:21;101585.88;;;14.96;85.90
29433;BME280;16405;53.964;13.448;2023-06-10T04:25:49;101593.13;;;15.44;84.53
29433;BME280;16405;53.964;13.448;2023-06-10T04:28:15;101600.28;;;16.86;80.55
29433;BME280;16405;53.964;13.448;2023-06-10T04:30:41;101608.56;;;17.83;75.51
29433;BME280;16405;53.964;13.448;2023-06-10T04:33:07;101608.00;;;19.01;71.09
29433;BME280;16405;53.964;13.448;2023-06-10T04:35:34;101606.88;;;20.06;67.42
29433;BME280;16405;53.964;13.448;2023-06-10T04:38:00;101613.41;;;21.45;63.31
29433;BME280;16405;53.964;13.448;2023-06-10T04:40:28;101617.16;;;21.99;60.23
29433;BME280;16405;53.964;13.448;2023-06-10T04:42:54;101616.34;;;21.54;60.79
29433;BME280;16405;53.964;13.448;2023-06-10T04:45:20;101618.13;;;21.42;60.80
29433;BME280;16405;53.964;13.448;2023-06-10T04:47:45;101621.56;;;22.44;58.67
29433;BME280;16405;53.964;13.448;2023-06-10T04:50:11;101630.41;;;23.20;56.33
29433;BME280;16405;53.964;13.448;2023-06-10T04:52:37;101634.66;;;23.23;55.77
29433;BME280;16405;53.964;13.448;2023-06-10T04:55:03;101630.66;;;24.00;53.24
29433;BME280;16405;53.964;13.448;2023-06-10T04:57:29;101635.97;;;24.40;53.45
29433;BME280;16405;53.964;13.448;2023-06-10T04:59:55;101649.06;;;25.23;51.59
29433;BME280;16405;53.964;13.448;2023-06-10T05:02:23;101654.25;;;25.44;51.03
29433;BME280;16405;53.964;13.448;2023-06-10T05:04:49;101678.22;;;26.67;49.16
29433;BME280;16405;53.964;13.448;2023-06-10T05:07:15;101671.41;;;27.17;47.75
29433;BME280;16405;53.964;13.448;2023-06-10T05:09:41;101676.66;;;27.89;45.91
29433;BME280;16405;53.964;13.448;2023-06-10T05:12:08;101688.97;;;27.13;46.32
29433;BME280;16405;53.964;13.448;2023-06-10T05:14:34;101657.84;;;25.25;49.59
29433;BME280;16405;53.964;13.448;2023-06-10T05:17:00;101652.66;;;24.24;50.89
29433;BME280;16405;53.964;13.448;2023-06-10T05:19:26;101651.38;;;24.19;50.65
29433;BME280;16405;53.964;13.448;2023-06-10T05:21:52;101650.84;;;23.11;53.40
29433;BME280;16405;53.964;13.448;2023-06-10T05:24:18;101647.34;;;22.35;54.50
29433;BME280;16405;53.964;13.448;2023-06-10T05:26:44;101667.50;;;23.26;54.30
29433;BME280;16405;53.964;13.448;2023-06-10T05:29:09;101662.13;;;24.19;51.74
29433;BME280;16405;53.964;13.448;2023-06-10T05:31:36;101672.19;;;24.86;51.04
29433;BME280;16405;53.964;13.448;2023-06-10T05:34:01;101681.84;;;25.75;49.25
29433;BME280;16405;53.964;13.448;2023-06-10T05:36:27;101694.06;;;26.34;47.50
29433;BME280;16405;53.964;13.448;2023-06-10T05:38:53;101700.84;;;26.66;46.93
29433;BME280;16405;53.964;13.448;2023-06-10T05:41:19;101708.13;;;26.66;46.42
29433;BME280;16405;53.964;13.448;2023-06-10T05:43:46;101709.88;;;27.29;45.65
29433;BME280;16405;53.964;13.448;2023-06-10T05:46:12;101723.91;;;27.76;44.75
29433;BME280;16405;53.964;13.448;2023-06-10T05:48:38;101712.66;;;27.89;43.75
29433;BME280;16405;53.964;13.448;2023-06-10T05:51:04;101739.91;;;28.30;43.47
29433;BME280;16405;53.964;13.448;2023-06-10T05:53:29;101712.75;;;27.09;44.71
29433;BME280;16405;53.964;13.448;2023-06-10T05:55:55;101711.34;;;27.05;43.89
29433;BME280;16405;53.964;13.448;2023-06-10T05:58:23;101717.47;;;26.89;45.41
29433;BME280;16405;53.964;13.448;2023-06-10T06:00:49;101729.09;;;27.44;44.20
29433;BME280;16405;53.964;13.448;2023-06-10T06:03:16;101737.88;;;28.83;42.66
29433;BME280;16405;53.964;13.448;2023-06-10T06:05:42;101746.44;;;29.21;41.60
29433;BME280;16405;53.964;13.448;2023-06-10T06:08:10;101751.88;;;30.10;40.36
29433;BME280;16405;53.964;13.448;2023-06-10T06:10:36;101719.06;;;28.22;42.20
29433;BME280;16405;53.964;13.448;2023-06-10T06:13:02;101727.50;;;28.54;42.68
29433;BME280;16405;53.964;13.448;2023-06-10T06:15:28;101767.44;;;29.35;40.93
29433;BME280;16405;53.964;13.448;2023-06-10T06:17:54;101732.66;;;27.96;42.45
29433;BME280;16405;53.964;13.448;2023-06-10T06:20:21;101744.44;;;28.56;42.22
29433;BME280;16405;53.964;13.448;2023-06-10T06:22:47;101740.09;;;28.88;41.30
29433;BME280;16405;53.964;13.448;2023-06-10T06:25:13;101748.03;;;28.81;41.47
29433;BME280;16405;53.964;13.448;2023-06-10T06:27:39;101772.13;;;29.99;40.02
29433;BME280;16405;53.964;13.448;2023-06-10T06:30:06;101763.63;;;28.87;40.96
29433;BME280;16405;53.964;13.448;2023-06-10T06:32:32;101739.59;;;26.57;43.24
29433;BME280;16405;53.964;13.448;2023-06-10T06:34:58;101751.84;;;27.33;43.58
29433;BME280;16405;53.964;13.448;2023-06-10T06:37:25;101748.59;;;27.55;43.05
29433;BME280;16405;53.964;13.448;2023-06-10T06:39:54;101752.59;;;28.64;41.19
29433;BME280;16405;53.964;13.448;2023-06-10T06:42:20;101747.81;;;27.37;42.77
29433;BME280;16405;53.964;13.448;2023-06-10T06:44:47;101748.50;;;27.03;43.49
29433;BME280;16405;53.964;13.448;2023-06-10T06:47:13;101752.97;;;27.48;42.77
29433;BME280;16405;53.964;13.448;2023-06-10T06:49:39;101768.25;;;28.95;40.84
29433;BME280;16405;53.964;13.448;2023-06-10T06:52:05;101768.00;;;28.72;41.07
29433;BME280;16405;53.964;13.448;2023-06-10T06:54:31;101774.31;;;28.89;40.97
29433;BME280;16405;53.964;13.448;2023-06-10T06:56:57;101773.00;;;29.01;40.11
29433;BME280;16405;53.964;13.448;2023-06-10T06:59:23;101781.16;;;29.26;40.00
29433;BME280;16405;53.964;13.448;2023-06-10T07:01:51;101768.69;;;28.74;41.27
29433;BME280;16405;53.964;13.448;2023-06-10T07:04:17;101761.69;;;27.86;41.74
29433;BME280;16405;53.964;13.448;2023-06-10T07:06:45;101762.03;;;27.39;42.68
29433;BME280;16405;53.964;13.448;2023-06-10T07:09:10;101752.38;;;27.00;43.14
29433;BME280;16405;53.964;13.448;2023-06-10T07:11:36;101767.09;;;27.42;42.85
29433;BME280;16405;53.964;13.448;2023-06-10T07:14:02;101760.31;;;27.20;43.24
29433;BME280;16405;53.964;13.448;2023-06-10T07:16:28;101754.63;;;27.23;43.27
29433;BME280;16405;53.964;13.448;2023-06-10T07:18:55;101770.59;;;28.05;41.96
29433;BME280;16405;53.964;13.448;2023-06-10T07:21:21;101784.72;;;28.51;41.32
29433;BME280;16405;53.964;13.448;2023-06-10T07:23:48;101788.47;;;28.23;40.52
29433;BME280;16405;53.964;13.448;2023-06-10T07:26:14;101779.53;;;27.79;41.00
29433;BME280;16405;53.964;13.448;2023-06-10T07:28:41;101775.41;;;27.67;42.45
29433;BME280;16405;53.964;13.448;2023-06-10T07:31:08;101796.50;;;28.84;40.51
29433;BME280;16405;53.964;13.448;2023-06-10T07:33:34;101776.91;;;27.61;42.46
29433;BME280;16405;53.964;13.448;2023-06-10T07:36:02;101783.19;;;28.48;41.51
29433;BME280;16405;53.964;13.448;2023-06-10T07:38:28;101789.91;;;28.95;40.70
29433;BME280;16405;53.964;13.448;2023-06-10T07:40:54;101786.59;;;28.58;41.35
29433;BME280;16405;53.964;13.448;2023-06-10T07:43:20;101794.72;;;29.26;40.61
29433;BME280;16405;53.964;13.448;2023-06-10T07:45:46;101786.00;;;28.89;41.23
29433;BME280;16405;53.964;13.448;2023-06-10T07:48:11;101790.25;;;28.83;40.66
29433;BME280;16405;53.964;13.448;2023-06-10T07:50:37;101786.06;;;28.55;41.35
29433;BME280;16405;53.964;13.448;2023-06-10T07:53:03;101779.28;;;28.51;41.32
29433;BME280;16405;53.964;13.448;2023-06-10T07:55:29;101793.94;;;28.74;41.01
29433;BME280;16405;53.964;13.448;2023-06-10T07:57:55;101783.72;;;28.52;41.11
29433;BME280;16405;53.964;13.448;2023-06-10T08:00:21;101779.94;;;27.84;42.51
29433;BME280;16405;53.964;13.448;2023-06-10T08:02:47;101786.97;;;28.29;41.57
29433;BME280;16405;53.964;13.448;2023-06-10T08:05:13;101781.19;;;28.24;41.72
29433;BME280;16405;53.964;13.448;2023-06-10T08:07:40;101784.19;;;28.13;42.20
29433;BME280;16405;53.964;13.448;2023-06-10T08:10:06;101764.16;;;26.99;44.20
29433;BME280;16405;53.964;13.448;2023-06-10T08:12:34;101766.72;;;27.19;43.90
29433;BME280;16405;53.964;13.448;2023-06-10T08:15:01;101769.44;;;27.37;44.08
29433;BME280;16405;53.964;13.448;2023-06-10T08:17:27;101757.97;;;26.44;45.32
29433;BME280;16405;53.964;13.448;2023-06-10T08:19:53;101749.63;;;25.99;46.16
29433;BME280;16405;53.964;13.448;2023-06-10T08:22:19;101748.00;;;25.79;46.87
29433;BME280;16405;53.964;13.448;2023-06-10T08:24:52;101745.22;;;25.51;46.88
29433;BME280;16405;53.964;13.448;2023-06-10T08:27:18;101748.19;;;25.19;47.35
29433;BME280;16405;53.964;13.448;2023-06-10T08:29:43;101728.44;;;24.60;49.11
29433;BME280;16405;53.964;13.448;2023-06-10T08:32:10;101730.63;;;24.45;49.30
29433;BME280;16405;53.964;13.448;2023-06-10T08:34:40;101722.50;;;23.95;50.15
29433;BME280;16405;53.964;13.448;2023-06-10T08:37:06;101730.53;;;24.56;50.04
29433;BME280;16405;53.964;13.448;2023-06-10T08:39:32;101738.84;;;24.44;49.42
29433;BME280;16405;53.964;13.448;2023-06-10T08:42:39;101727.22;;;24.03;50.38
29433;BME280;16405;53.964;13.448;2023-06-10T08:45:08;101732.41;;;23.94;50.63
29433;BME280;16405;53.964;13.448;2023-06-10T08:47:37;101736.28;;;24.42;50.87
29433;BME280;16405;53.964;13.448;2023-06-10T08:50:07;101742.59;;;24.22;50.56
29433;BME280;16405;53.964;13.448;2023-06-10T08:52:37;101725.56;;;24.11;50.98
29433;BME280;16405;53.964;13.448;2023-06-10T08:55:15;101722.66;;;23.93;51.74
29433;BME280;16405;53.964;13.448;2023-06-10T08:57:45;101727.13;;;23.62;52.07
29433;BME280;16405;53.964;13.448;2023-06-10T09:00:17;101720.69;;;23.53;52.58
29433;BME280;16405;53.964;13.448;2023-06-10T09:02:43;101737.19;;;23.81;52.29
29433;BME280;16405;53.964;13.448;2023-06-10T09:05:10;101722.25;;;23.56;53.00
29433;BME280;16405;53.964;13.448;2023-06-10T09:07:36;101728.09;;;23.82;52.34
29433;BME280;16405;53.964;13.448;2023-06-10T09:10:04;101727.28;;;23.40;52.86
29433;BME280;16405;53.964;13.448;2023-06-10T09:12:34;101745.38;;;23.59;52.81
29433;BME280;16405;53.964;13.448;2023-06-10T09:15:01;101715.13;;;22.92;53.87
29433;BME280;16405;53.964;13.448;2023-06-10T09:17:38;101716.81;;;23.04;53.93
29433;BME280;16405;53.964;13.448;2023-06-10T09:20:08;101728.88;;;23.52;53.24
29433;BME280;16405;53.964;13.448;2023-06-10T09:22:37;101736.50;;;23.68;52.57
29433;BME280;16405;53.964;13.448;2023-06-10T09:25:08;101736.22;;;23.71;53.11
29433;BME280;16405;53.964;13.448;2023-06-10T09:27:54;101739.19;;;23.68;52.28
29433;BME280;16405;53.964;13.448;2023-06-10T09:30:33;101729.03;;;23.50;53.24
29433;BME280;16405;53.964;13.448;2023-06-10T09:33:13;101720.91;;;23.20;53.73
29433;BME280;16405;53.964;13.448;2023-06-10T09:35:50;101730.50;;;23.54;53.22
29433;BME280;16405;53.964;13.448;2023-06-10T09:38:30;101729.56;;;23.44;52.92
29433;BME280;16405;53.964;13.448;2023-06-10T09:41:00;101723.47;;;23.63;53.45
29433;BME280;16405;53.964;13.448;2023-06-10T09:43:59;101728.59;;;23.97;52.20
29433;BME280;16405;53.964;13.448;2023-06-10T09:46:31;101732.91;;;24.09;52.33
29433;BME280;16405;53.964;13.448;2023-06-10T09:49:06;101728.06;;;24.44;52.23
29433;BME280;16405;53.964;13.448;2023-06-10T09:51:32;101718.81;;;23.65;53.45
29433;BME280;16405;53.964;13.448;2023-06-10T09:54:04;101722.34;;;23.66;53.98
29433;BME280;16405;53.964;13.448;2023-06-10T09:56:35;101725.22;;;23.74;53.84
29433;BME280;16405;53.964;13.448;2023-06-10T09:59:11;101725.97;;;24.07;53.49
29433;BME280;16405;53.964;13.448;2023-06-10T10:01:37;101718.00;;;23.95;53.07
29433;BME280;16405;53.964;13.448;2023-06-10T10:04:06;101724.56;;;24.12;53.25
29433;BME280;16405;53.964;13.448;2023-06-10T10:06:35;101726.59;;;24.20;53.10
29433;BME280;16405;53.964;13.448;2023-06-10T10:09:02;101726.50;;;24.41;52.57
29433;BME280;16405;53.964;13.448;2023-06-10T10:11:33;101729.44;;;24.28;53.26
29433;BME280;16405;53.964;13.448;2023-06-10T10:14:00;101739.75;;;24.54;53.17
29433;BME280;16405;53.964;13.448;2023-06-10T10:16:41;101726.84;;;24.58;52.57
29433;BME280;16405;53.964;13.448;2023-06-10T10:19:16;101737.22;;;24.62;52.16
29433;BME280;16405;53.964;13.448;2023-06-10T10:21:53;101743.00;;;24.17;52.55
29433;BME280;16405;53.964;13.448;2023-06-10T10:24:33;101736.72;;;24.07;52.76
29433;BME280;16405;53.964;13.448;2023-06-10T10:27:04;101733.22;;;24.16;53.32
29433;BME280;16405;53.964;13.448;2023-06-10T10:29:39;101744.78;;;24.38;52.51
29433;BME280;16405;53.964;13.448;2023-06-10T10:32:07;101737.66;;;24.27;53.14
29433;BME280;16405;53.964;13.448;2023-06-10T10:35:19;101738.78;;;24.24;53.22
29433;BME280;16405;53.964;13.448;2023-06-10T10:37:44;101731.22;;;24.08;53.00
29433;BME280;16405;53.964;13.448;2023-06-10T10:40:11;101742.25;;;24.46;53.49
29433;BME280;16405;53.964;13.448;2023-06-10T10:42:38;101748.47;;;24.06;52.94
29433;BME280;16405;53.964;13.448;2023-06-10T10:45:06;101730.75;;;23.30;54.07
29433;BME280;16405;53.964;13.448;2023-06-10T10:47:33;101730.72;;;23.51;54.29
29433;BME280;16405;53.964;13.448;2023-06-10T10:50:01;101734.75;;;23.57;54.36
29433;BME280;16405;53.964;13.448;2023-06-10T10:52:28;101743.94;;;23.54;53.74
29433;BME280;16405;53.964;13.448;2023-06-10T10:55:12;101750.06;;;23.45;54.31
29433;BME280;16405;53.964;13.448;2023-06-10T10:57:39;101734.41;;;23.71;54.18
29433;BME280;16405;53.964;13.448;2023-06-10T11:00:06;101726.94;;;23.33;54.41
29433;BME280;16405;53.964;13.448;2023-06-10T11:02:42;101736.38;;;23.90;53.95
29433;BME280;16405;53.964;13.448;2023-06-10T11:05:15;101728.84;;;23.42;54.03
29433;BME280;16405;53.964;13.448;2023-06-10T11:07:55;101734.19;;;23.84;53.62
29433;BME280;16405;53.964;13.448;2023-06-10T11:10:36;101729.41;;;23.88;53.34
29433;BME280;16405;53.964;13.448;2023-06-10T11:13:10;101732.16;;;23.98;53.96
29433;BME280;16405;53.964;13.448;2023-06-10T11:15:46;101734.97;;;24.27;52.99
29433;BME280;16405;53.964;13.448;2023-06-10T11:18:38;101732.31;;;24.36;52.38
29433;BME280;16405;53.964;13.448;2023-06-10T11:21:05;101726.22;;;24.44;52.56
29433;BME280;16405;53.964;13.448;2023-06-10T11:23:37;101724.63;;;24.63;52.49
29433;BME280;16405;53.964;13.448;2023-06-10T11:34:06;101723.31;;;24.57;51.97
29433;BME280;16405;53.964;13.448;2023-06-10T11:36:37;101731.84;;;24.72;51.98
29433;BME280;16405;53.964;13.448;2023-06-10T11:39:06;101732.44;;;24.75;51.17
29433;BME280;16405;53.964;13.448;2023-06-10T11:41:36;101729.88;;;25.03;51.05
29433;BME280;16405;53.964;13.448;2023-06-10T11:44:10;101729.44;;;24.79;50.68
29433;BME280;16405;53.964;13.448;2023-06-10T11:46:36;101734.78;;;24.19;51.26
29433;BME280;16405;53.964;13.448;2023-06-10T11:49:03;101730.13;;;24.61;51.38
29433;BME280;16405;53.964;13.448;2023-06-10T11:51:35;101728.56;;;24.59;51.67
29433;BME280;16405;53.964;13.448;2023-06-10T11:54:02;101733.94;;;24.68;51.47
29433;BME280;16405;53.964;13.448;2023-06-10T11:56:32;101728.06;;;25.04;50.35
29433;BME280;16405;53.964;13.448;2023-06-10T11:59:04;101731.44;;;24.36;50.63
29433;BME280;16405;53.964;13.448;2023-06-10T12:01:36;101728.47;;;24.80;50.82
29433;BME280;16405;53.964;13.448;2023-06-10T12:06:58;101730.72;;;24.65;50.03
29433;BME280;16405;53.964;13.448;2023-06-10T12:09:28;101744.31;;;24.73;49.66
29433;BME280;16405;53.964;13.448;2023-06-10T12:12:02;101734.69;;;23.89;50.67
29433;BME280;16405;53.964;13.448;2023-06-10T12:14:57;101719.97;;;23.93;51.04
29433;BME280;16405;53.964;13.448;2023-06-10T12:17:43;101727.22;;;24.43;50.06
29433;BME280;16405;53.964;13.448;2023-06-10T12:20:31;101724.91;;;24.29;50.48
29433;BME280;16405;53.964;13.448;2023-06-10T12:23:09;101729.88;;;24.74;49.79
29433;BME280;16405;53.964;13.448;2023-06-10T12:25:37;101721.03;;;24.52;48.81
29433;BME280;16405;53.964;13.448;2023-06-10T12:28:04;101727.81;;;24.06;49.54
29433;BME280;16405;53.964;13.448;2023-06-10T12:30:31;101723.16;;;24.08;49.16
29433;BME280;16405;53.964;13.448;2023-06-10T12:32:57;101731.56;;;23.94;49.23
29433;BME280;16405;53.964;13.448;2023-06-10T12:35:27;101732.97;;;23.67;49.75
29433;BME280;16405;53.964;13.448;2023-06-10T12:38:02;101729.69;;;23.85;50.48
29433;BME280;16405;53.964;13.448;2023-06-10T12:40:38;101727.94;;;24.05;49.83
29433;BME280;16405;53.964;13.448;2023-06-10T12:43:06;101720.69;;;23.95;50.07
29433;BME280;16405;53.964;13.448;2023-06-10T12:45:34;101727.41;;;23.80;50.16
29433;BME280;16405;53.964;13.448;2023-06-10T12:50:40;101725.78;;;23.99;50.08
29433;BME280;16405;53.964;13.448;2023-06-10T12:53:06;101719.56;;;23.98;50.49
29433;BME280;16405;53.964;13.448;2023-06-10T12:55:33;101722.47;;;24.16;50.48
29433;BME280;16405;53.964;13.448;2023-06-10T12:58:00;101720.16;;;24.02;51.37
29433;BME280;16405;53.964;13.448;2023-06-10T13:00:30;101728.19;;;24.32;50.45
29433;BME280;16405;53.964;13.448;2023-06-10T13:02:57;101715.53;;;24.13;51.01
29433;BME280;16405;53.964;13.448;2023-06-10T13:05:24;101725.25;;;24.45;49.82